Time;durP1;ratioP1;P1;durP2;ratioP2;P2;SDS_P1;SDS_P2;PMS_P1;PMS_P2;Temp;Humidity;BMP_temperature;BMP_pressure;BME280_temperature;BME280_humidity;BME280_pressure;Samples;Min_cycle;Max_cycle;Signal;HPM_P1;HPM_P2
2023/09/10 00:01:16;;;;;;;10.85;8.88;;;20.60;99.90;;;;;;6140242;22;87949;-71
2023/09/10 00:03:42;;;;;;;13.05;10.35;;;20.60;99.90;;;;;;6139758;22;87685;-71
2023/09/10 00:06:08;;;;;;;14.55;9.48;;;20.60;99.90;;;;;;6138284;22;87429;-71
2023/09/10 00:08:35;;;;;;;14.88;10.27;;;20.50;99.90;;;;;;6138963;22;89301;-72
2023/09/10 00:11:01;;;;;;;15.20;9.57;;;20.50;99.90;;;;;;6161295;22;91648;-72
2023/09/10 00:13:28;;;;;;;13.35;8.95;;;20.50;99.90;;;;;;6139327;22;88350;-71
2023/09/10 00:15:54;;;;;;;12.00;9.07;;;20.50;99.90;;;;;;6162146;22;87492;-72
2023/09/10 00:18:21;;;;;;;12.90;9.18;;;20.40;99.90;;;;;;6139103;22;87570;-71
2023/09/10 00:20:47;;;;;;;11.82;8.43;;;20.40;99.90;;;;;;6138703;22;88199;-71
2023/09/10 00:23:14;;;;;;;13.82;9.65;;;20.40;99.90;;;;;;6136541;22;89496;-71
2023/09/10 00:25:40;;;;;;;12.95;8.68;;;20.40;99.90;;;;;;6139603;22;86820;-71
2023/09/10 00:28:05;;;;;;;12.07;9.57;;;20.30;99.90;;;;;;6139711;22;88261;-71
2023/09/10 00:30:31;;;;;;;15.10;10.38;;;20.30;99.90;;;;;;6138994;22;87782;-71
2023/09/10 00:32:57;;;;;;;14.52;9.60;;;20.30;99.90;;;;;;6137712;22;88322;-71
2023/09/10 00:35:22;;;;;;;13.80;10.13;;;20.20;99.90;;;;;;6162720;22;87455;-71
2023/09/10 00:37:48;;;;;;;12.70;10.45;;;20.20;99.90;;;;;;6137871;22;87894;-71
2023/09/10 00:40:14;;;;;;;18.77;10.43;;;20.20;99.90;;;;;;6138772;22;88243;-72
2023/09/10 00:42:40;;;;;;;20.33;11.23;;;20.20;99.90;;;;;;6139198;22;87888;-72
2023/09/10 00:45:08;;;;;;;18.23;10.45;;;20.10;99.90;;;;;;6138846;22;87533;-71
2023/09/10 00:47:35;;;;;;;15.02;10.07;;;20.10;99.90;;;;;;6137332;22;92031;-71
2023/09/10 00:50:01;;;;;;;13.95;10.30;;;20.10;99.90;;;;;;6138561;22;87163;-71
2023/09/10 00:52:28;;;;;;;15.18;11.13;;;20.10;99.90;;;;;;6138197;22;89242;-72
2023/09/10 00:54:54;;;;;;;18.85;12.25;;;20.10;99.90;;;;;;6138891;22;87407;-70
2023/09/10 00:57:21;;;;;;;14.25;11.02;;;20.00;99.90;;;;;;6137658;22;88694;-71
2023/09/10 00:59:47;;;;;;;19.38;11.70;;;20.00;99.90;;;;;;6137391;22;89113;-70
2023/09/10 01:02:15;;;;;;;15.73;10.70;;;20.00;99.90;;;;;;6135794;22;88786;-71
2023/09/10 01:04:41;;;;;;;14.73;10.80;;;20.00;99.90;;;;;;6136947;22;87463;-71
2023/09/10 01:07:06;;;;;;;14.27;10.57;;;19.90;99.90;;;;;;6138783;22;87402;-72
2023/09/10 01:09:32;;;;;;;12.52;10.13;;;19.90;99.90;;;;;;6138751;22;88688;-71
2023/09/10 01:12:15;;;;;;;16.63;10.93;;;19.90;99.90;;;;;;6136256;22;91429;-71
2023/09/10 01:14:42;;;;;;;17.67;11.02;;;19.90;99.90;;;;;;6138769;22;87399;-72
2023/09/10 01:17:29;;;;;;;17.95;11.07;;;19.90;99.90;;;;;;6138288;22;89121;-71
2023/09/10 01:20:25;;;;;;;18.40;10.73;;;19.80;99.90;;;;;;6137173;22;88221;-72
2023/09/10 01:23:01;;;;;;;15.82;10.23;;;19.80;99.90;;;;;;6159767;22;91124;-72
2023/09/10 01:25:28;;;;;;;16.15;10.43;;;19.80;99.90;;;;;;6137365;22;87491;-72
2023/09/10 01:27:53;;;;;;;18.98;10.75;;;19.80;99.90;;;;;;6137652;22;87651;-71
2023/09/10 01:30:19;;;;;;;14.93;9.35;;;19.80;99.90;;;;;;6136122;22;89619;-71
2023/09/10 01:32:51;;;;;;;20.75;9.90;;;19.70;99.90;;;;;;6139047;22;88360;-71
2023/09/10 01:35:16;;;;;;;15.07;9.73;;;19.70;99.90;;;;;;6161900;22;87624;-71
2023/09/10 01:37:53;;;;;;;18.08;9.93;;;19.70;99.90;;;;;;6138286;22;87671;-71
2023/09/10 01:40:21;;;;;;;14.98;10.50;;;19.70;99.90;;;;;;6139223;22;87469;-71
2023/09/10 01:42:48;;;;;;;19.23;9.32;;;19.70;99.90;;;;;;6136408;22;89572;-72
2023/09/10 01:45:15;;;;;;;15.40;9.82;;;19.60;99.90;;;;;;6138042;22;87513;-71
2023/09/10 01:47:41;;;;;;;18.83;10.45;;;19.60;99.90;;;;;;6138285;22;88628;-71
2023/09/10 01:50:07;;;;;;;15.88;9.18;;;19.60;99.90;;;;;;6138661;22;87639;-71
2023/09/10 01:52:32;;;;;;;17.70;9.70;;;19.50;99.90;;;;;;6139994;22;87900;-71
2023/09/10 01:54:58;;;;;;;11.40;9.40;;;19.50;99.90;;;;;;6139080;22;87502;-71
2023/09/10 01:57:24;;;;;;;17.88;9.35;;;19.40;99.90;;;;;;6139131;22;87711;-71
2023/09/10 01:59:49;;;;;;;16.33;9.10;;;19.40;99.90;;;;;;6138201;22;87725;-71
2023/09/10 02:02:16;;;;;;;18.35;9.57;;;19.40;99.90;;;;;;6162506;22;91324;-72
2023/09/10 02:04:41;;;;;;;19.70;10.90;;;19.40;99.90;;;;;;6138390;22;86907;-71
2023/09/10 02:07:07;;;;;;;16.88;10.13;;;19.40;99.90;;;;;;6138172;22;87481;-75
2023/09/10 02:09:33;;;;;;;15.45;11.32;;;19.40;99.90;;;;;;6138563;22;87997;-70
2023/09/10 02:11:58;;;;;;;19.63;11.48;;;19.40;99.90;;;;;;6135037;22;89922;-71
2023/09/10 02:14:24;;;;;;;21.90;12.02;;;19.40;99.90;;;;;;6137018;22;87772;-71
2023/09/10 02:16:50;;;;;;;19.33;10.85;;;19.30;99.90;;;;;;6136079;22;87572;-71
2023/09/10 02:19:15;;;;;;;21.98;12.90;;;19.30;99.90;;;;;;6137241;22;88394;-71
2023/09/10 02:21:41;;;;;;;15.77;12.15;;;19.30;99.90;;;;;;6137677;22;88079;-71
2023/09/10 02:24:07;;;;;;;17.98;11.45;;;19.30;99.90;;;;;;6138277;22;87417;-71
2023/09/10 02:26:32;;;;;;;15.48;10.93;;;19.20;99.90;;;;;;6136418;22;87645;-71
2023/09/10 02:28:58;;;;;;;16.70;11.43;;;19.20;99.90;;;;;;6137658;22;87951;-71
2023/09/10 02:31:25;;;;;;;19.60;12.55;;;19.20;99.90;;;;;;6136596;22;87598;-71
2023/09/10 02:33:50;;;;;;;21.63;13.13;;;19.20;99.90;;;;;;6137496;22;87761;-71
2023/09/10 02:36:16;;;;;;;18.63;12.35;;;19.20;99.90;;;;;;6137407;22;88545;-72
2023/09/10 02:38:42;;;;;;;18.33;13.00;;;19.20;99.90;;;;;;6137619;22;87923;-70
2023/09/10 02:41:07;;;;;;;22.05;12.75;;;19.20;99.90;;;;;;6160686;22;91997;-70
2023/09/10 02:43:33;;;;;;;19.60;12.13;;;19.20;99.90;;;;;;6138076;22;87523;-72
2023/09/10 02:46:01;;;;;;;21.23;12.45;;;19.20;99.90;;;;;;6137364;22;87822;-71
2023/09/10 02:48:27;;;;;;;20.10;12.45;;;19.10;99.90;;;;;;6137514;22;88683;-70
2023/09/10 02:50:54;;;;;;;19.35;12.02;;;19.10;99.90;;;;;;6138133;22;88762;-71
2023/09/10 02:53:19;;;;;;;25.20;11.70;;;19.10;99.90;;;;;;6139082;22;86809;-71
2023/09/10 02:55:45;;;;;;;19.27;11.88;;;19.10;99.90;;;;;;6138032;22;88959;-71
2023/09/10 02:58:10;;;;;;;20.42;11.13;;;19.10;99.90;;;;;;6138515;22;91382;-70
2023/09/10 03:00:36;;;;;;;14.98;11.07;;;19.00;99.90;;;;;;6138298;22;88450;-70
2023/09/10 03:03:02;;;;;;;15.07;10.77;;;19.00;99.90;;;;;;6138582;22;87523;-71
2023/09/10 03:05:33;;;;;;;13.25;10.88;;;19.00;99.90;;;;;;6138252;22;91490;-70
2023/09/10 03:07:59;;;;;;;19.30;12.55;;;19.00;99.90;;;;;;6137738;22;87563;-72
2023/09/10 03:10:24;;;;;;;18.77;12.43;;;19.00;99.90;;;;;;6139500;22;87868;-71
2023/09/10 03:12:50;;;;;;;23.63;13.50;;;18.90;99.90;;;;;;6139396;22;88135;-72
2023/09/10 03:15:16;;;;;;;24.02;11.93;;;19.00;99.90;;;;;;6139033;22;87622;-72
2023/09/10 03:17:41;;;;;;;19.13;13.00;;;18.90;99.90;;;;;;6138241;22;87410;-72
2023/09/10 03:20:09;;;;;;;17.77;12.18;;;18.90;99.90;;;;;;6137607;22;88014;-72
2023/09/10 03:22:36;;;;;;;22.38;13.73;;;18.90;99.90;;;;;;6138488;22;87861;-70
2023/09/10 03:25:01;;;;;;;18.05;13.38;;;18.90;99.90;;;;;;6139429;22;88981;-71
2023/09/10 03:27:27;;;;;;;19.40;13.15;;;18.90;99.90;;;;;;6163236;22;90801;-71
2023/09/10 03:29:53;;;;;;;22.05;13.00;;;18.80;99.90;;;;;;6137206;22;87932;-70
2023/09/10 03:32:19;;;;;;;23.90;13.15;;;18.80;99.90;;;;;;6139157;22;88008;-71
2023/09/10 03:34:44;;;;;;;21.67;13.35;;;18.80;99.90;;;;;;6162476;22;89968;-70
2023/09/10 03:37:10;;;;;;;20.88;13.32;;;18.80;99.90;;;;;;6163164;22;91351;-72
2023/09/10 03:39:36;;;;;;;22.13;14.57;;;18.80;99.90;;;;;;6138802;22;88323;-72
2023/09/10 03:42:02;;;;;;;18.85;13.82;;;18.70;99.90;;;;;;6137313;22;86541;-71
2023/09/10 03:44:29;;;;;;;25.42;13.98;;;18.70;99.90;;;;;;6137955;22;88326;-72
2023/09/10 03:46:54;;;;;;;17.65;12.40;;;18.70;99.90;;;;;;6138415;22;88244;-72
2023/09/10 03:49:20;;;;;;;16.02;12.13;;;18.70;99.90;;;;;;6138814;22;89960;-71
2023/09/10 03:51:49;;;;;;;21.38;12.90;;;18.70;99.90;;;;;;6139040;22;87808;-70
2023/09/10 03:54:14;;;;;;;19.65;13.73;;;18.70;99.90;;;;;;6138741;22;87709;-71
2023/09/10 03:56:41;;;;;;;35.10;14.05;;;18.70;99.90;;;;;;6138350;22;89185;-71
2023/09/10 03:59:08;;;;;;;18.50;13.73;;;18.60;99.90;;;;;;6137210;22;91095;-71
2023/09/10 04:01:34;;;;;;;22.00;13.80;;;18.60;99.90;;;;;;6139252;22;87502;-71
2023/09/10 04:04:00;;;;;;;18.00;13.10;;;18.60;99.90;;;;;;6140988;22;87380;-71
2023/09/10 04:06:26;;;;;;;22.25;13.98;;;18.60;99.90;;;;;;6140307;22;87751;-71
2023/09/10 04:08:52;;;;;;;20.77;14.18;;;18.60;99.90;;;;;;6139023;22;87567;-70
2023/09/10 04:11:17;;;;;;;23.52;13.45;;;18.60;99.90;;;;;;6138064;22;87418;-72
2023/09/10 04:13:44;;;;;;;17.88;15.00;;;18.60;99.90;;;;;;6136671;22;88763;-70
2023/09/10 04:16:10;;;;;;;29.15;15.25;;;18.60;99.90;;;;;;6138404;22;87640;-72
2023/09/10 04:18:36;;;;;;;19.52;14.00;;;18.60;99.90;;;;;;6137818;22;87924;-71
2023/09/10 04:21:05;;;;;;;19.52;13.90;;;18.60;99.90;;;;;;6138672;22;87690;-71
2023/09/10 04:23:31;;;;;;;19.52;14.15;;;18.60;99.90;;;;;;6139012;22;87855;-71
2023/09/10 04:25:56;;;;;;;20.20;14.10;;;18.60;99.90;;;;;;6137257;22;87779;-71
2023/09/10 04:28:22;;;;;;;18.27;12.50;;;18.60;99.90;;;;;;6137640;22;87577;-70
2023/09/10 04:30:48;;;;;;;20.38;13.45;;;18.60;99.90;;;;;;6137418;22;90469;-72
2023/09/10 04:33:17;;;;;;;24.60;14.10;;;18.60;99.90;;;;;;6138065;22;87915;-70
2023/09/10 04:35:53;;;;;;;19.33;13.25;;;18.60;99.90;;;;;;6138384;22;88715;-70
2023/09/10 04:38:19;;;;;;;20.90;12.25;;;18.60;99.90;;;;;;6137983;22;88669;-70
2023/09/10 04:40:45;;;;;;;26.35;11.85;;;18.50;99.90;;;;;;6138397;22;88859;-70
2023/09/10 04:43:10;;;;;;;18.70;11.75;;;18.50;99.90;;;;;;6137115;22;87555;-70
2023/09/10 04:45:36;;;;;;;14.63;11.85;;;18.50;99.90;;;;;;6137998;22;89357;-71
2023/09/10 04:48:04;;;;;;;20.08;12.55;;;18.40;99.90;;;;;;6137105;22;88004;-70
2023/09/10 04:50:31;;;;;;;17.80;12.38;;;18.40;99.90;;;;;;6137499;22;87274;-71
2023/09/10 04:52:56;;;;;;;16.58;11.73;;;18.40;99.90;;;;;;6136677;22;89821;-71
2023/09/10 04:55:22;;;;;;;16.35;10.93;;;18.40;99.90;;;;;;6137821;22;87225;-70
2023/09/10 04:57:48;;;;;;;15.07;11.30;;;18.40;99.90;;;;;;6136178;22;91119;-70
2023/09/10 05:00:17;;;;;;;14.75;10.60;;;18.40;99.90;;;;;;6137449;22;87013;-70
2023/09/10 05:02:42;;;;;;;17.88;11.80;;;18.30;99.90;;;;;;6135269;22;88484;-71
2023/09/10 05:05:08;;;;;;;28.92;11.77;;;18.40;99.90;;;;;;6137732;22;88594;-72
2023/09/10 05:07:34;;;;;;;17.02;12.00;;;18.30;99.90;;;;;;6133889;22;88619;-71
2023/09/10 05:09:59;;;;;;;18.63;11.20;;;18.30;99.90;;;;;;6157457;22;87868;-70
2023/09/10 05:12:25;;;;;;;20.45;12.32;;;18.30;99.90;;;;;;6132536;22;87921;-70
2023/09/10 05:14:51;;;;;;;19.40;12.18;;;18.30;99.90;;;;;;6133456;22;88600;-71
2023/09/10 05:17:16;;;;;;;20.83;11.90;;;18.30;99.90;;;;;;6135193;22;87630;-71
2023/09/10 05:19:43;;;;;;;18.92;11.98;;;18.30;99.90;;;;;;6136457;22;86582;-70
2023/09/10 05:22:08;;;;;;;24.63;13.30;;;18.30;99.90;;;;;;6137877;22;87430;-72
2023/09/10 05:24:35;;;;;;;20.92;11.90;;;18.30;99.90;;;;;;6137137;22;87509;-72
2023/09/10 05:27:00;;;;;;;16.85;11.98;;;18.30;99.90;;;;;;6138699;22;88435;-70
2023/09/10 05:29:26;;;;;;;19.17;11.60;;;18.30;99.90;;;;;;6137609;22;87438;-70
2023/09/10 05:31:52;;;;;;;22.35;12.52;;;18.30;99.90;;;;;;6137472;22;88160;-70
2023/09/10 05:34:18;;;;;;;18.20;12.10;;;18.30;99.90;;;;;;6137942;22;87562;-70
2023/09/10 05:36:43;;;;;;;21.13;12.63;;;18.30;99.90;;;;;;6138652;22;88297;-72
2023/09/10 05:39:09;;;;;;;21.38;12.68;;;18.30;99.90;;;;;;6139234;22;87709;-70
2023/09/10 05:41:35;;;;;;;17.65;13.20;;;18.30;99.90;;;;;;6138378;22;89461;-71
2023/09/10 05:44:00;;;;;;;19.63;12.73;;;18.40;99.90;;;;;;6161892;22;90904;-70
2023/09/10 05:46:27;;;;;;;22.42;13.75;;;18.40;99.90;;;;;;6138684;22;88242;-71
2023/09/10 05:48:53;;;;;;;20.05;13.63;;;18.40;99.90;;;;;;6137873;22;87964;-71
2023/09/10 05:51:18;;;;;;;19.45;12.85;;;18.40;99.90;;;;;;6136062;22;88409;-70
2023/09/10 05:53:44;;;;;;;20.50;14.93;;;18.40;99.90;;;;;;6137719;22;89081;-71
2023/09/10 05:56:10;;;;;;;17.52;13.07;;;18.50;99.90;;;;;;6137396;22;88482;-71
2023/09/10 05:58:36;;;;;;;19.15;13.38;;;18.50;99.90;;;;;;6136820;22;87697;-71
2023/09/10 06:01:01;;;;;;;17.25;12.32;;;18.50;99.90;;;;;;6138106;22;87477;-72
2023/09/10 06:03:27;;;;;;;21.80;14.20;;;18.60;99.90;;;;;;6137477;22;88244;-70
2023/09/10 06:05:53;;;;;;;23.15;14.18;;;18.60;99.90;;;;;;6137710;22;88315;-70
2023/09/10 06:08:18;;;;;;;27.33;15.35;;;18.70;99.90;;;;;;6136884;22;86905;-70
2023/09/10 06:10:44;;;;;;;25.30;14.48;;;18.70;99.90;;;;;;6136341;22;90633;-70
2023/09/10 06:13:09;;;;;;;31.15;15.18;;;18.80;99.90;;;;;;6136224;22;91455;-70
2023/09/10 06:15:38;;;;;;;25.60;16.15;;;18.90;99.90;;;;;;6136762;22;88745;-71
2023/09/10 06:18:04;;;;;;;26.15;15.75;;;18.90;99.90;;;;;;6136819;22;88122;-70
2023/09/10 06:20:30;;;;;;;25.30;13.77;;;19.00;99.90;;;;;;6137200;22;88040;-70
2023/09/10 06:22:56;;;;;;;26.52;15.10;;;19.10;99.90;;;;;;6137012;22;88003;-71
2023/09/10 06:25:23;;;;;;;23.98;15.65;;;19.20;99.90;;;;;;6137971;22;87853;-72
2023/09/10 06:27:49;;;;;;;26.63;16.75;;;19.20;99.90;;;;;;6161931;22;87993;-72
2023/09/10 06:30:15;;;;;;;20.75;15.40;;;19.30;99.90;;;;;;6137598;22;87909;-72
2023/09/10 06:32:40;;;;;;;22.75;16.42;;;19.40;99.90;;;;;;6138507;22;87380;-71
2023/09/10 06:35:06;;;;;;;27.50;16.90;;;19.50;99.90;;;;;;6137166;22;87560;-72
2023/09/10 06:37:32;;;;;;;23.75;17.23;;;19.60;99.90;;;;;;6137917;22;87802;-72
2023/09/10 06:39:58;;;;;;;29.10;17.20;;;19.70;99.90;;;;;;6138639;22;92737;-70
2023/09/10 06:42:24;;;;;;;24.27;17.10;;;19.80;99.90;;;;;;6137946;22;87259;-72
2023/09/10 06:44:49;;;;;;;24.35;17.08;;;19.90;99.90;;;;;;6137926;22;88363;-71
2023/09/10 06:47:15;;;;;;;24.15;15.98;;;20.00;99.90;;;;;;6139369;22;87397;-72
2023/09/10 06:49:41;;;;;;;23.33;16.33;;;20.10;99.90;;;;;;6137585;22;89016;-71
2023/09/10 06:52:08;;;;;;;27.20;16.80;;;20.20;99.90;;;;;;6137982;22;91828;-71
2023/09/10 06:54:33;;;;;;;26.00;17.08;;;20.30;99.90;;;;;;6139124;22;87675;-74
2023/09/10 06:57:00;;;;;;;28.60;16.30;;;20.40;99.90;;;;;;6138468;22;86668;-73
2023/09/10 06:59:29;;;;;;;17.92;16.00;;;20.50;99.90;;;;;;6138789;22;88017;-72
2023/09/10 07:01:56;;;;;;;31.48;15.05;;;20.60;99.90;;;;;;6137108;22;91340;-73
2023/09/10 07:04:23;;;;;;;23.70;16.42;;;20.70;99.90;;;;;;6138314;22;89273;-75
2023/09/10 07:06:50;;;;;;;26.73;15.43;;;20.80;99.90;;;;;;6139473;22;87588;-75
2023/09/10 07:09:21;;;;;;;19.10;15.13;;;20.90;99.90;;;;;;6165961;22;90981;-76
2023/09/10 07:11:52;;;;;;;21.45;14.57;;;21.00;99.90;;;;;;6137929;22;91485;-71
2023/09/10 07:14:18;;;;;;;20.33;14.98;;;21.10;99.90;;;;;;6139926;22;87558;-72
2023/09/10 07:16:45;;;;;;;21.20;14.20;;;21.20;99.90;;;;;;6139394;22;87993;-73
2023/09/10 07:19:11;;;;;;;19.77;13.43;;;21.30;99.90;;;;;;6140622;22;88050;-75
2023/09/10 07:21:37;;;;;;;20.48;13.32;;;21.40;99.90;;;;;;6140496;22;87510;-75
2023/09/10 07:24:06;;;;;;;19.73;13.18;;;21.60;99.90;;;;;;6140247;22;87548;-75
2023/09/10 07:26:33;;;;;;;21.27;13.82;;;21.70;99.90;;;;;;6138502;22;87375;-76
2023/09/10 07:28:59;;;;;;;26.90;14.55;;;21.70;99.90;;;;;;6137421;22;88630;-75
2023/09/10 07:31:24;;;;;;;22.25;13.68;;;21.80;99.90;;;;;;6139312;22;87647;-74
2023/09/10 07:33:50;;;;;;;16.75;12.07;;;22.00;99.90;;;;;;6162332;22;90811;-76
2023/09/10 07:36:16;;;;;;;24.95;13.75;;;22.10;99.90;;;;;;6139697;22;87663;-77
2023/09/10 07:38:41;;;;;;;15.05;12.23;;;22.20;99.90;;;;;;6139514;22;88128;-75
2023/09/10 07:41:07;;;;;;;22.70;11.98;;;22.30;99.90;;;;;;6130786;22;92135;-77
2023/09/10 07:43:32;;;;;;;23.08;11.93;;;22.30;99.90;;;;;;6109247;23;87761;-79
2023/09/10 07:45:58;;;;;;;19.13;11.60;;;22.50;99.90;;;;;;6140465;22;88419;-75
2023/09/10 07:48:24;;;;;;;26.02;11.77;;;22.50;99.90;;;;;;6136482;22;87632;-78
2023/09/10 07:50:57;;;;;;;19.02;10.68;;;22.70;99.90;;;;;;6139041;22;88318;-79
2023/09/10 07:53:23;;;;;;;16.63;10.33;;;22.70;99.90;;;;;;6145991;22;88988;-76
2023/09/10 07:55:49;;;;;;;16.92;10.80;;;22.80;99.90;;;;;;6135621;22;87477;-77
2023/09/10 07:58:15;;;;;;;15.98;9.60;;;22.90;99.90;;;;;;6138393;22;87615;-79
2023/09/10 08:00:40;;;;;;;21.25;10.02;;;23.00;99.90;;;;;;6162382;22;90145;-77
2023/09/10 08:03:06;;;;;;;21.08;10.63;;;23.10;99.90;;;;;;6139496;22;88265;-79
2023/09/10 08:05:33;;;;;;;24.08;10.35;;;23.20;99.80;;;;;;6140356;22;88052;-75
2023/09/10 08:08:05;;;;;;;18.50;9.88;;;23.40;99.90;;;;;;6138538;22;90561;-73
2023/09/10 08:10:32;;;;;;;17.50;9.45;;;23.40;99.40;;;;;;6141327;22;91408;-74
2023/09/10 08:12:58;;;;;;;15.25;9.45;;;23.60;99.60;;;;;;6140016;22;91613;-73
2023/09/10 08:15:24;;;;;;;22.40;8.63;;;23.70;99.70;;;;;;6118496;22;87450;-76
2023/09/10 08:17:53;;;;;;;14.82;8.18;;;23.80;99.10;;;;;;6125897;22;88420;-72
2023/09/10 08:20:18;;;;;;;11.48;8.45;;;24.00;99.10;;;;;;6139324;22;87644;-73
2023/09/10 08:22:44;;;;;;;19.48;9.35;;;24.10;99.40;;;;;;6137157;22;89531;-73
2023/09/10 08:25:10;;;;;;;15.57;9.00;;;24.20;98.30;;;;;;6139346;22;87487;-72
2023/09/10 08:27:35;;;;;;;16.60;8.40;;;24.40;98.70;;;;;;6140141;22;87638;-73
2023/09/10 08:30:05;;;;;;;17.98;8.02;;;24.50;97.80;;;;;;6140979;22;88427;-77
2023/09/10 08:32:31;;;;;;;13.43;8.05;;;24.60;97.80;;;;;;6140039;22;89138;-76
2023/09/10 08:34:57;;;;;;;13.18;8.27;;;24.80;98.30;;;;;;6139827;22;86911;-76
2023/09/10 08:37:22;;;;;;;18.33;7.63;;;24.90;98.50;;;;;;6141598;22;87580;-78
2023/09/10 08:39:48;;;;;;;13.07;7.40;;;25.10;97.70;;;;;;6140823;22;87683;-75
2023/09/10 08:42:40;;;;;;;13.18;7.72;;;25.20;97.70;;;;;;6139847;22;88809;-77
2023/09/10 08:45:07;;;;;;;17.02;7.60;;;25.40;97.50;;;;;;6140267;22;88130;-76
2023/09/10 08:47:43;;;;;;;14.73;6.97;;;25.50;97.50;;;;;;6139633;22;87813;-80
2023/09/10 08:50:11;;;;;;;17.10;7.40;;;25.70;97.40;;;;;;6140110;22;88559;-76
2023/09/10 08:52:41;;;;;;;16.30;7.15;;;25.90;97.00;;;;;;6140160;22;88090;-75
2023/09/10 08:55:08;;;;;;;15.52;7.40;;;26.00;96.80;;;;;;6140519;22;87750;-72
2023/09/10 08:57:37;;;;;;;11.77;7.15;;;26.20;96.50;;;;;;6137233;22;90867;-71
2023/09/10 09:00:10;;;;;;;15.05;6.97;;;26.40;96.80;;;;;;6137282;22;90650;-69
2023/09/10 09:02:37;;;;;;;12.90;6.28;;;26.60;96.20;;;;;;6139215;22;87777;-69
2023/09/10 09:05:02;;;;;;;12.02;6.95;;;26.70;95.30;;;;;;6163387;22;87582;-70
2023/09/10 09:07:34;;;;;;;16.63;6.10;;;26.90;95.00;;;;;;6139468;22;88387;-69
2023/09/10 09:10:04;;;;;;;13.02;6.07;;;27.10;94.50;;;;;;6138581;22;93746;-69
2023/09/10 09:12:32;;;;;;;13.13;6.57;;;27.30;93.40;;;;;;6139709;22;88277;-69
2023/09/10 09:15:01;;;;;;;14.90;6.90;;;27.40;93.10;;;;;;6139225;22;87625;-68
2023/09/10 09:17:28;;;;;;;17.52;6.68;;;27.60;93.70;;;;;;6162874;22;90589;-68
2023/09/10 09:19:56;;;;;;;16.15;6.10;;;27.80;93.70;;;;;;6138383;22;88391;-67
2023/09/10 09:22:28;;;;;;;11.98;5.78;;;28.00;92.00;;;;;;6163435;22;91387;-68
2023/09/10 09:24:55;;;;;;;18.42;6.28;;;28.10;90.60;;;;;;6139600;22;87212;-67
2023/09/10 09:27:24;;;;;;;11.57;5.75;;;28.20;91.40;;;;;;6138310;22;87737;-68
2023/09/10 09:29:51;;;;;;;12.80;5.78;;;28.40;92.40;;;;;;6136526;22;91061;-69
2023/09/10 09:32:16;;;;;;;14.07;6.05;;;28.60;91.20;;;;;;6137294;22;87958;-69
2023/09/10 09:34:42;;;;;;;16.42;6.30;;;28.80;91.10;;;;;;6138599;22;87954;-70
2023/09/10 09:37:19;;;;;;;11.43;5.10;;;29.00;90.10;;;;;;6138711;22;87764;-69
2023/09/10 09:39:45;;;;;;;12.07;4.93;;;29.10;88.90;;;;;;6137993;22;87982;-70
2023/09/10 09:42:11;;;;;;;10.77;5.32;;;29.30;90.90;;;;;;6161077;22;89599;-69
2023/09/10 09:44:36;;;;;;;13.85;5.40;;;29.50;89.10;;;;;;6137057;22;87636;-70
2023/09/10 09:47:02;;;;;;;13.70;5.10;;;29.70;89.50;;;;;;6138537;22;87747;-70
2023/09/10 09:49:28;;;;;;;13.13;5.88;;;29.90;87.70;;;;;;6163857;22;90872;-70
2023/09/10 09:51:54;;;;;;;16.63;4.75;;;30.00;84.40;;;;;;6138057;22;88435;-70
2023/09/10 09:54:26;;;;;;;10.32;4.90;;;30.20;85.40;;;;;;6139341;22;87704;-69
2023/09/10 09:56:52;;;;;;;11.90;4.93;;;30.30;84.90;;;;;;6162209;22;90800;-69
2023/09/10 09:59:17;;;;;;;15.73;5.68;;;30.40;81.70;;;;;;6163599;22;91211;-69
2023/09/10 10:01:44;;;;;;;13.55;5.25;;;30.60;81.10;;;;;;6138894;22;87858;-68
2023/09/10 10:04:09;;;;;;;12.20;5.30;;;30.70;81.90;;;;;;6140478;22;87264;-70
2023/09/10 10:06:36;;;;;;;17.42;5.07;;;30.80;78.90;;;;;;6162880;22;89819;-69
2023/09/10 10:09:03;;;;;;;13.57;4.88;;;30.90;79.60;;;;;;6140429;22;88345;-68
2023/09/10 10:11:31;;;;;;;15.20;6.65;;;30.90;78.30;;;;;;6140511;22;88574;-70
2023/09/10 10:14:01;;;;;;;10.05;4.60;;;31.10;80.40;;;;;;6139729;22;86611;-68
2023/09/10 10:16:28;;;;;;;12.02;5.28;;;31.20;80.70;;;;;;6141041;22;88011;-68
2023/09/10 10:18:55;;;;;;;12.20;4.97;;;31.40;78.90;;;;;;6139468;22;88774;-70
2023/09/10 10:21:24;;;;;;;12.07;4.40;;;31.60;79.50;;;;;;6139792;22;88469;-69
2023/09/10 10:23:56;;;;;;;10.27;4.50;;;31.80;80.30;;;;;;6163886;22;87598;-68
2023/09/10 10:26:22;;;;;;;13.27;4.25;;;32.00;79.20;;;;;;6140146;22;87654;-70
2023/09/10 10:28:49;;;;;;;10.75;4.30;;;32.30;79.80;;;;;;6140063;22;88187;-69
2023/09/10 10:31:25;;;;;;;9.80;4.80;;;32.50;77.30;;;;;;6139597;22;88711;-70
2023/09/10 10:34:11;;;;;;;13.48;4.65;;;32.70;77.30;;;;;;6139675;22;87509;-68
2023/09/10 10:36:46;;;;;;;9.65;4.90;;;32.90;74.50;;;;;;6137664;22;88271;-69
2023/09/10 10:39:16;;;;;;;13.85;4.63;;;33.00;72.30;;;;;;6139592;22;90083;-69
2023/09/10 10:41:50;;;;;;;8.30;3.70;;;33.20;72.00;;;;;;6138469;22;87681;-70
2023/09/10 10:44:25;;;;;;;8.60;3.78;;;33.40;74.70;;;;;;6163182;22;87991;-70
2023/09/10 10:47:10;;;;;;;9.70;4.28;;;33.60;77.20;;;;;;6139033;22;88926;-69
2023/09/10 10:49:42;;;;;;;12.65;4.35;;;34.00;77.20;;;;;;6139888;22;87928;-69
2023/09/10 10:52:10;;;;;;;16.92;4.22;;;34.20;63.30;;;;;;6140475;22;87567;-70
2023/09/10 10:54:38;;;;;;;9.07;3.95;;;34.30;69.20;;;;;;6139373;22;87458;-70
2023/09/10 10:57:06;;;;;;;9.93;3.33;;;34.40;67.70;;;;;;6140819;22;87463;-71
2023/09/10 10:59:33;;;;;;;12.77;4.55;;;34.60;66.50;;;;;;6140797;22;88823;-69
2023/09/10 11:02:21;;;;;;;11.93;4.20;;;34.70;69.10;;;;;;6138598;22;87956;-69
2023/09/10 11:04:57;;;;;;;17.23;6.70;;;35.00;65.20;;;;;;6139843;22;87443;-69
2023/09/10 11:07:23;;;;;;;20.67;5.88;;;35.20;63.40;;;;;;6138694;22;87808;-70
2023/09/10 11:09:49;;;;;;;7.03;3.50;;;35.30;65.20;;;;;;6139614;22;88176;-68
2023/09/10 11:12:16;;;;;;;11.68;3.55;;;35.50;63.70;;;;;;6139215;22;88816;-69
2023/09/10 11:14:59;;;;;;;9.27;3.80;;;35.70;67.20;;;;;;6139716;22;87864;-69
2023/09/10 11:17:26;;;;;;;9.07;3.40;;;35.80;60.60;;;;;;6140046;22;87467;-69
2023/09/10 11:19:51;;;;;;;8.10;3.38;;;36.00;67.50;;;;;;6138662;22;88327;-71
2023/09/10 11:22:17;;;;;;;9.60;3.55;;;36.30;65.70;;;;;;6140362;22;87725;-70
2023/09/10 11:24:43;;;;;;;7.90;3.35;;;36.50;62.70;;;;;;6139995;22;87350;-68
2023/09/10 11:27:20;;;;;;;7.72;3.88;;;36.80;66.90;;;;;;6139993;22;87997;-70
2023/09/10 11:30:02;;;;;;;7.82;3.40;;;37.00;63.40;;;;;;6138185;22;90492;-71
2023/09/10 11:32:28;;;;;;;;;;;37.20;64.10;;;;;;6141598;22;87790;-71
2023/09/10 11:35:20;;;;;;;7.40;3.20;;;37.50;63.90;;;;;;6143584;22;88095;-69
2023/09/10 11:37:47;;;;;;;13.27;3.35;;;37.80;64.10;;;;;;6165042;22;90250;-70
2023/09/10 11:40:13;;;;;;;6.80;3.38;;;38.00;57.40;;;;;;6142664;22;88241;-70
2023/09/10 11:42:43;;;;;;;9.40;3.50;;;38.00;54.50;;;;;;6141862;22;87870;-71
2023/09/10 11:45:10;;;;;;;9.32;3.80;;;38.00;55.10;;;;;;6141836;22;87811;-71
2023/09/10 11:47:39;;;;;;;8.88;3.55;;;38.10;54.50;;;;;;6166569;22;88867;-69
2023/09/10 11:50:05;;;;;;;6.57;3.20;;;38.10;52.00;;;;;;6142169;22;88055;-70
2023/09/10 11:52:31;;;;;;;13.15;3.45;;;38.20;58.10;;;;;;6165984;22;91353;-69
2023/09/10 11:54:58;;;;;;;8.68;3.20;;;38.50;56.40;;;;;;6142600;22;86916;-71
2023/09/10 11:57:23;;;;;;;8.23;3.25;;;38.30;49.90;;;;;;6142943;22;88459;-71
2023/09/10 11:59:51;;;;;;;9.55;2.90;;;38.40;49.80;;;;;;6142615;22;88225;-71
2023/09/10 12:02:21;;;;;;;10.05;4.15;;;38.50;56.00;;;;;;6140219;22;88403;-71
2023/09/10 12:04:49;;;;;;;11.75;3.72;;;38.80;52.40;;;;;;6139953;22;88032;-72
2023/09/10 12:07:15;;;;;;;12.27;4.45;;;38.90;55.70;;;;;;6140962;22;88255;-71
2023/09/10 12:09:40;;;;;;;5.35;2.90;;;39.10;51.10;;;;;;6163616;22;91594;-69
2023/09/10 12:12:19;;;;;;;7.30;3.45;;;39.30;56.80;;;;;;6139033;22;87847;-70
2023/09/10 12:14:45;;;;;;;6.93;2.83;;;39.60;52.50;;;;;;6139399;22;87819;-69
2023/09/10 12:17:11;;;;;;;9.77;2.97;;;39.70;56.20;;;;;;6164180;22;89921;-68
2023/09/10 12:19:38;;;;;;;10.25;3.90;;;39.90;50.80;;;;;;6139790;22;87226;-69
2023/09/10 12:22:09;;;;;;;11.95;3.58;;;40.00;54.80;;;;;;6140032;22;87653;-70
2023/09/10 12:24:36;;;;;;;8.00;3.50;;;40.20;51.10;;;;;;6138961;22;87580;-69
2023/09/10 12:27:02;;;;;;;10.80;2.95;;;40.20;50.40;;;;;;6139230;22;88375;-67
2023/09/10 12:29:28;;;;;;;7.97;3.05;;;40.40;53.50;;;;;;6139310;22;87863;-69
2023/09/10 12:31:57;;;;;;;10.27;2.63;;;40.50;51.40;;;;;;6138407;22;87917;-68
2023/09/10 12:34:23;;;;;;;7.60;3.17;;;40.60;54.00;;;;;;6140712;22;87338;-68